sensor_id;sensor_type;location;lat;lon;timestamp;P1;durP1;ratioP1;P2;durP2;ratioP2
20997;SDS011;10657;51.276;6.390;2023-02-28T00:00:34;7.40;;;3.58;;
20997;SDS011;10657;51.276;6.390;2023-02-28T00:03:02;9.60;;;3.90;;
20997;SDS011;10657;51.276;6.390;2023-02-28T00:05:29;8.65;;;3.65;;
20997;SDS011;10657;51.276;6.390;2023-02-28T00:07:56;8.20;;;3.70;;
20997;SDS011;10657;51.276;6.390;2023-02-28T00:10:24;8.38;;;4.03;;
20997;SDS011;10657;51.276;6.390;2023-02-28T00:12:53;6.45;;;2.95;;
20997;SDS011;10657;51.276;6.390;2023-02-28T00:15:23;11.13;;;4.35;;
20997;SDS011;10657;51.276;6.390;2023-02-28T00:17:50;11.20;;;5.68;;
20997;SDS011;10657;51.276;6.390;2023-02-28T00:20:17;8.38;;;3.25;;
20997;SDS011;10657;51.276;6.390;2023-02-28T00:22:45;9.60;;;4.43;;
20997;SDS011;10657;51.276;6.390;2023-02-28T00:25:15;9.23;;;3.83;;
20997;SDS011;10657;51.276;6.390;2023-02-28T00:27:43;7.97;;;3.80;;
20997;SDS011;10657;51.276;6.390;2023-02-28T00:30:15;10.77;;;4.13;;
20997;SDS011;10657;51.276;6.390;2023-02-28T00:32:46;10.68;;;6.03;;
20997;SDS011;10657;51.276;6.390;2023-02-28T00:35:13;7.43;;;3.97;;
20997;SDS011;10657;51.276;6.390;2023-02-28T00:37:40;8.13;;;4.20;;
20997;SDS011;10657;51.276;6.390;2023-02-28T00:40:07;7.88;;;3.85;;
20997;SDS011;10657;51.276;6.390;2023-02-28T00:42:35;7.68;;;4.07;;
20997;SDS011;10657;51.276;6.390;2023-02-28T00:45:02;10.40;;;4.40;;
20997;SDS011;10657;51.276;6.390;2023-02-28T00:47:30;10.52;;;4.55;;
20997;SDS011;10657;51.276;6.390;2023-02-28T00:49:58;8.80;;;4.55;;
20997;SDS011;10657;51.276;6.390;2023-02-28T00:52:25;8.70;;;4.05;;
20997;SDS011;10657;51.276;6.390;2023-02-28T00:54:52;10.50;;;4.72;;
20997;SDS011;10657;51.276;6.390;2023-02-28T00:57:18;11.07;;;5.20;;
20997;SDS011;10657;51.276;6.390;2023-02-28T00:59:45;9.82;;;4.20;;
20997;SDS011;10657;51.276;6.390;2023-02-28T01:02:12;9.77;;;4.55;;
20997;SDS011;10657;51.276;6.390;2023-02-28T01:04:38;8.55;;;4.40;;
20997;SDS011;10657;51.276;6.390;2023-02-28T01:07:05;8.52;;;4.22;;
20997;SDS011;10657;51.276;6.390;2023-02-28T01:09:32;7.85;;;4.15;;
20997;SDS011;10657;51.276;6.390;2023-02-28T01:11:59;8.15;;;4.22;;
20997;SDS011;10657;51.276;6.390;2023-02-28T01:14:25;10.18;;;4.05;;
20997;SDS011;10657;51.276;6.390;2023-02-28T01:16:52;8.90;;;4.38;;
20997;SDS011;10657;51.276;6.390;2023-02-28T01:19:19;9.40;;;4.47;;
20997;SDS011;10657;51.276;6.390;2023-02-28T01:21:46;10.73;;;4.57;;
20997;SDS011;10657;51.276;6.390;2023-02-28T01:24:13;15.43;;;4.90;;
20997;SDS011;10657;51.276;6.390;2023-02-28T01:26:39;11.15;;;4.80;;
20997;SDS011;10657;51.276;6.390;2023-02-28T01:29:06;9.52;;;4.72;;
20997;SDS011;10657;51.276;6.390;2023-02-28T01:31:33;13.25;;;5.10;;
20997;SDS011;10657;51.276;6.390;2023-02-28T01:34:00;10.30;;;4.82;;
20997;SDS011;10657;51.276;6.390;2023-02-28T01:36:26;13.48;;;6.30;;
20997;SDS011;10657;51.276;6.390;2023-02-28T01:38:53;10.65;;;4.68;;
20997;SDS011;10657;51.276;6.390;2023-02-28T01:41:22;8.98;;;4.35;;
20997;SDS011;10657;51.276;6.390;2023-02-28T01:43:55;8.93;;;4.55;;
20997;SDS011;10657;51.276;6.390;2023-02-28T01:46:24;8.50;;;3.83;;
20997;SDS011;10657;51.276;6.390;2023-02-28T01:48:51;10.82;;;4.50;;
20997;SDS011;10657;51.276;6.390;2023-02-28T01:51:29;8.40;;;4.30;;
20997;SDS011;10657;51.276;6.390;2023-02-28T01:54:03;8.93;;;4.05;;
20997;SDS011;10657;51.276;6.390;2023-02-28T01:56:41;8.32;;;2.95;;
20997;SDS011;10657;51.276;6.390;2023-02-28T01:59:12;5.05;;;2.15;;
20997;SDS011;10657;51.276;6.390;2023-02-28T02:01:45;6.53;;;1.98;;
20997;SDS011;10657;51.276;6.390;2023-02-28T02:04:12;6.82;;;2.65;;
20997;SDS011;10657;51.276;6.390;2023-02-28T02:06:43;7.57;;;2.92;;
20997;SDS011;10657;51.276;6.390;2023-02-28T02:09:12;6.45;;;2.33;;
20997;SDS011;10657;51.276;6.390;2023-02-28T02:11:39;6.32;;;2.83;;
20997;SDS011;10657;51.276;6.390;2023-02-28T02:19:46;4.53;;;1.73;;
20997;SDS011;10657;51.276;6.390;2023-02-28T02:28:05;8.52;;;4.28;;
20997;SDS011;10657;51.276;6.390;2023-02-28T02:36:30;5.32;;;2.10;;
20997;SDS011;10657;51.276;6.390;2023-02-28T02:39:06;7.15;;;2.88;;
20997;SDS011;10657;51.276;6.390;2023-02-28T02:41:51;7.03;;;2.72;;
20997;SDS011;10657;51.276;6.390;2023-02-28T02:44:30;6.55;;;2.67;;
20997;SDS011;10657;51.276;6.390;2023-02-28T02:47:06;6.82;;;2.85;;
20997;SDS011;10657;51.276;6.390;2023-02-28T02:49:38;9.27;;;4.10;;
20997;SDS011;10657;51.276;6.390;2023-02-28T02:52:08;7.68;;;2.85;;
20997;SDS011;10657;51.276;6.390;2023-02-28T02:54:41;5.28;;;2.00;;
20997;SDS011;10657;51.276;6.390;2023-02-28T02:57:13;11.57;;;4.28;;
20997;SDS011;10657;51.276;6.390;2023-02-28T03:00:02;8.30;;;2.35;;
20997;SDS011;10657;51.276;6.390;2023-02-28T03:02:34;8.80;;;4.07;;
20997;SDS011;10657;51.276;6.390;2023-02-28T03:05:23;8.85;;;3.50;;
20997;SDS011;10657;51.276;6.390;2023-02-28T03:08:05;7.65;;;3.55;;
20997;SDS011;10657;51.276;6.390;2023-02-28T03:10:45;6.10;;;2.47;;
20997;SDS011;10657;51.276;6.390;2023-02-28T03:13:20;8.93;;;3.85;;
20997;SDS011;10657;51.276;6.390;2023-02-28T03:24:11;9.13;;;4.03;;
20997;SDS011;10657;51.276;6.390;2023-02-28T03:27:09;8.82;;;3.72;;
20997;SDS011;10657;51.276;6.390;2023-02-28T03:29:43;8.55;;;4.22;;
20997;SDS011;10657;51.276;6.390;2023-02-28T03:32:18;11.18;;;5.25;;
20997;SDS011;10657;51.276;6.390;2023-02-28T03:34:57;8.52;;;3.83;;
20997;SDS011;10657;51.276;6.390;2023-02-28T03:37:30;9.18;;;3.92;;
20997;SDS011;10657;51.276;6.390;2023-02-28T03:40:06;10.13;;;4.35;;
20997;SDS011;10657;51.276;6.390;2023-02-28T03:42:44;9.00;;;4.13;;
20997;SDS011;10657;51.276;6.390;2023-02-28T03:45:17;9.27;;;3.22;;
20997;SDS011;10657;51.276;6.390;2023-02-28T03:47:50;4.97;;;2.22;;
20997;SDS011;10657;51.276;6.390;2023-02-28T03:50:23;7.93;;;3.60;;
20997;SDS011;10657;51.276;6.390;2023-02-28T03:55:33;8.25;;;3.80;;
20997;SDS011;10657;51.276;6.390;2023-02-28T04:01:05;6.72;;;2.58;;
20997;SDS011;10657;51.276;6.390;2023-02-28T04:03:36;6.93;;;2.25;;
20997;SDS011;10657;51.276;6.390;2023-02-28T04:06:04;5.88;;;2.40;;
20997;SDS011;10657;51.276;6.390;2023-02-28T04:08:33;7.55;;;2.17;;
20997;SDS011;10657;51.276;6.390;2023-02-28T04:11:04;6.60;;;2.72;;
20997;SDS011;10657;51.276;6.390;2023-02-28T04:13:41;8.10;;;2.40;;
20997;SDS011;10657;51.276;6.390;2023-02-28T04:16:08;7.05;;;1.85;;
20997;SDS011;10657;51.276;6.390;2023-02-28T04:18:49;6.95;;;1.77;;
20997;SDS011;10657;51.276;6.390;2023-02-28T04:21:16;11.20;;;2.53;;
20997;SDS011;10657;51.276;6.390;2023-02-28T04:23:46;4.20;;;1.58;;
20997;SDS011;10657;51.276;6.390;2023-02-28T04:26:13;4.32;;;1.70;;
20997;SDS011;10657;51.276;6.390;2023-02-28T04:28:39;5.85;;;2.03;;
20997;SDS011;10657;51.276;6.390;2023-02-28T04:31:06;6.68;;;2.95;;
20997;SDS011;10657;51.276;6.390;2023-02-28T04:33:33;5.28;;;2.13;;
20997;SDS011;10657;51.276;6.390;2023-02-28T04:36:00;5.93;;;1.70;;
20997;SDS011;10657;51.276;6.390;2023-02-28T04:38:29;4.97;;;1.80;;
20997;SDS011;10657;51.276;6.390;2023-02-28T04:40:59;7.03;;;2.33;;
20997;SDS011;10657;51.276;6.390;2023-02-28T04:43:27;5.68;;;1.83;;
20997;SDS011;10657;51.276;6.390;2023-02-28T04:45:54;5.90;;;1.83;;
20997;SDS011;10657;51.276;6.390;2023-02-28T04:48:23;4.97;;;1.88;;
20997;SDS011;10657;51.276;6.390;2023-02-28T04:50:51;5.72;;;2.00;;
20997;SDS011;10657;51.276;6.390;2023-02-28T04:53:18;8.18;;;1.90;;
20997;SDS011;10657;51.276;6.390;2023-02-28T04:55:45;6.57;;;2.58;;
20997;SDS011;10657;51.276;6.390;2023-02-28T04:58:12;6.72;;;2.38;;
20997;SDS011;10657;51.276;6.390;2023-02-28T05:00:39;6.15;;;2.10;;
20997;SDS011;10657;51.276;6.390;2023-02-28T05:03:06;5.28;;;1.83;;
20997;SDS011;10657;51.276;6.390;2023-02-28T05:05:32;7.47;;;1.98;;
20997;SDS011;10657;51.276;6.390;2023-02-28T05:07:59;4.40;;;1.33;;
20997;SDS011;10657;51.276;6.390;2023-02-28T05:10:26;6.35;;;1.88;;
20997;SDS011;10657;51.276;6.390;2023-02-28T05:12:52;5.28;;;1.63;;
20997;SDS011;10657;51.276;6.390;2023-02-28T05:15:19;7.25;;;3.20;;
20997;SDS011;10657;51.276;6.390;2023-02-28T05:17:45;4.78;;;1.50;;
20997;SDS011;10657;51.276;6.390;2023-02-28T05:20:12;6.80;;;2.20;;
20997;SDS011;10657;51.276;6.390;2023-02-28T05:22:43;4.82;;;1.50;;
20997;SDS011;10657;51.276;6.390;2023-02-28T05:25:15;5.05;;;1.73;;
20997;SDS011;10657;51.276;6.390;2023-02-28T05:27:43;5.65;;;1.92;;
20997;SDS011;10657;51.276;6.390;2023-02-28T05:30:10;8.65;;;3.78;;
20997;SDS011;10657;51.276;6.390;2023-02-28T05:32:37;6.75;;;2.75;;
20997;SDS011;10657;51.276;6.390;2023-02-28T05:35:05;7.18;;;2.38;;
20997;SDS011;10657;51.276;6.390;2023-02-28T05:37:32;4.72;;;1.58;;
20997;SDS011;10657;51.276;6.390;2023-02-28T05:39:58;5.18;;;1.90;;
20997;SDS011;10657;51.276;6.390;2023-02-28T05:42:25;5.45;;;2.00;;
20997;SDS011;10657;51.276;6.390;2023-02-28T05:44:52;6.65;;;2.95;;
20997;SDS011;10657;51.276;6.390;2023-02-28T05:47:19;4.72;;;2.03;;
20997;SDS011;10657;51.276;6.390;2023-02-28T05:49:45;6.07;;;1.80;;
20997;SDS011;10657;51.276;6.390;2023-02-28T05:52:12;4.97;;;1.40;;
20997;SDS011;10657;51.276;6.390;2023-02-28T05:54:38;6.68;;;1.80;;
20997;SDS011;10657;51.276;6.390;2023-02-28T05:57:05;4.57;;;1.63;;
20997;SDS011;10657;51.276;6.390;2023-02-28T05:59:47;6.25;;;1.60;;
20997;SDS011;10657;51.276;6.390;2023-02-28T06:02:15;6.30;;;2.20;;
20997;SDS011;10657;51.276;6.390;2023-02-28T06:04:43;3.65;;;1.30;;
20997;SDS011;10657;51.276;6.390;2023-02-28T06:07:10;4.85;;;1.70;;
20997;SDS011;10657;51.276;6.390;2023-02-28T06:09:37;5.03;;;1.65;;
20997;SDS011;10657;51.276;6.390;2023-02-28T06:12:04;6.00;;;2.05;;
20997;SDS011;10657;51.276;6.390;2023-02-28T06:14:33;6.25;;;1.77;;
20997;SDS011;10657;51.276;6.390;2023-02-28T06:17:00;4.72;;;1.52;;
20997;SDS011;10657;51.276;6.390;2023-02-28T06:19:28;8.25;;;3.25;;
20997;SDS011;10657;51.276;6.390;2023-02-28T06:21:56;4.40;;;1.40;;
20997;SDS011;10657;51.276;6.390;2023-02-28T06:24:23;7.25;;;1.70;;
20997;SDS011;10657;51.276;6.390;2023-02-28T06:26:50;6.25;;;1.70;;
20997;SDS011;10657;51.276;6.390;2023-02-28T06:29:17;4.95;;;1.60;;
20997;SDS011;10657;51.276;6.390;2023-02-28T06:31:44;4.53;;;1.63;;
20997;SDS011;10657;51.276;6.390;2023-02-28T06:34:13;4.07;;;1.38;;
20997;SDS011;10657;51.276;6.390;2023-02-28T06:36:40;4.90;;;1.60;;
20997;SDS011;10657;51.276;6.390;2023-02-28T06:39:08;4.30;;;1.27;;
20997;SDS011;10657;51.276;6.390;2023-02-28T06:41:35;6.78;;;1.80;;
20997;SDS011;10657;51.276;6.390;2023-02-28T06:44:20;4.30;;;1.50;;
20997;SDS011;10657;51.276;6.390;2023-02-28T06:46:48;5.03;;;1.40;;
20997;SDS011;10657;51.276;6.390;2023-02-28T06:49:14;3.95;;;1.23;;
20997;SDS011;10657;51.276;6.390;2023-02-28T06:51:42;6.85;;;1.65;;
20997;SDS011;10657;51.276;6.390;2023-02-28T06:54:13;4.68;;;1.63;;
20997;SDS011;10657;51.276;6.390;2023-02-28T06:56:39;4.45;;;1.40;;
20997;SDS011;10657;51.276;6.390;2023-02-28T06:59:06;4.85;;;1.63;;
20997;SDS011;10657;51.276;6.390;2023-02-28T07:01:33;6.85;;;2.10;;
20997;SDS011;10657;51.276;6.390;2023-02-28T07:04:00;8.18;;;3.03;;
20997;SDS011;10657;51.276;6.390;2023-02-28T07:06:27;4.65;;;1.60;;
20997;SDS011;10657;51.276;6.390;2023-02-28T07:08:54;3.70;;;1.35;;
20997;SDS011;10657;51.276;6.390;2023-02-28T07:11:21;5.13;;;1.42;;
20997;SDS011;10657;51.276;6.390;2023-02-28T07:13:54;5.60;;;1.60;;
20997;SDS011;10657;51.276;6.390;2023-02-28T07:16:22;5.00;;;1.58;;
20997;SDS011;10657;51.276;6.390;2023-02-28T07:18:52;5.63;;;1.73;;
20997;SDS011;10657;51.276;6.390;2023-02-28T07:21:19;6.50;;;2.20;;
20997;SDS011;10657;51.276;6.390;2023-02-28T07:23:46;5.65;;;1.45;;
20997;SDS011;10657;51.276;6.390;2023-02-28T07:26:14;4.68;;;1.42;;
20997;SDS011;10657;51.276;6.390;2023-02-28T07:28:43;4.53;;;1.42;;
20997;SDS011;10657;51.276;6.390;2023-02-28T07:31:11;5.85;;;1.63;;
20997;SDS011;10657;51.276;6.390;2023-02-28T07:33:40;8.25;;;1.70;;
20997;SDS011;10657;51.276;6.390;2023-02-28T07:36:09;5.80;;;1.50;;
20997;SDS011;10657;51.276;6.390;2023-02-28T07:38:41;6.60;;;1.60;;
20997;SDS011;10657;51.276;6.390;2023-02-28T07:41:13;3.47;;;1.27;;
20997;SDS011;10657;51.276;6.390;2023-02-28T07:43:41;4.22;;;1.48;;
20997;SDS011;10657;51.276;6.390;2023-02-28T07:46:09;6.72;;;1.63;;
20997;SDS011;10657;51.276;6.390;2023-02-28T07:48:37;5.05;;;1.75;;
20997;SDS011;10657;51.276;6.390;2023-02-28T07:51:04;4.15;;;1.35;;
20997;SDS011;10657;51.276;6.390;2023-02-28T07:53:31;5.55;;;1.45;;
20997;SDS011;10657;51.276;6.390;2023-02-28T07:55:58;7.50;;;1.48;;
20997;SDS011;10657;51.276;6.390;2023-02-28T07:58:27;9.00;;;1.90;;
20997;SDS011;10657;51.276;6.390;2023-02-28T08:00:54;5.47;;;1.70;;
20997;SDS011;10657;51.276;6.390;2023-02-28T08:03:22;5.22;;;1.50;;
20997;SDS011;10657;51.276;6.390;2023-02-28T08:05:49;4.32;;;1.55;;
20997;SDS011;10657;51.276;6.390;2023-02-28T08:08:16;4.00;;;1.30;;
20997;SDS011;10657;51.276;6.390;2023-02-28T08:10:43;4.65;;;1.60;;
20997;SDS011;10657;51.276;6.390;2023-02-28T08:13:09;4.55;;;1.50;;
20997;SDS011;10657;51.276;6.390;2023-02-28T08:15:36;4.43;;;1.70;;
20997;SDS011;10657;51.276;6.390;2023-02-28T08:18:03;6.10;;;1.48;;
20997;SDS011;10657;51.276;6.390;2023-02-28T08:20:30;6.00;;;1.92;;
20997;SDS011;10657;51.276;6.390;2023-02-28T08:22:57;4.45;;;1.48;;
20997;SDS011;10657;51.276;6.390;2023-02-28T08:25:23;7.53;;;1.52;;
20997;SDS011;10657;51.276;6.390;2023-02-28T08:27:51;7.28;;;2.28;;
20997;SDS011;10657;51.276;6.390;2023-02-28T08:30:18;4.97;;;1.48;;
20997;SDS011;10657;51.276;6.390;2023-02-28T08:32:45;4.82;;;1.48;;
20997;SDS011;10657;51.276;6.390;2023-02-28T08:35:11;5.22;;;1.40;;
20997;SDS011;10657;51.276;6.390;2023-02-28T08:37:38;4.65;;;1.58;;
20997;SDS011;10657;51.276;6.390;2023-02-28T08:40:05;8.18;;;2.08;;
20997;SDS011;10657;51.276;6.390;2023-02-28T08:42:32;3.35;;;1.17;;
20997;SDS011;10657;51.276;6.390;2023-02-28T08:44:59;3.55;;;1.15;;
20997;SDS011;10657;51.276;6.390;2023-02-28T08:47:26;5.43;;;1.50;;
20997;SDS011;10657;51.276;6.390;2023-02-28T08:49:52;5.80;;;1.92;;
20997;SDS011;10657;51.276;6.390;2023-02-28T08:52:19;4.47;;;1.33;;
20997;SDS011;10657;51.276;6.390;2023-02-28T08:54:46;12.90;;;1.50;;
20997;SDS011;10657;51.276;6.390;2023-02-28T08:57:12;3.33;;;0.80;;
20997;SDS011;10657;51.276;6.390;2023-02-28T08:59:39;1.77;;;0.75;;
20997;SDS011;10657;51.276;6.390;2023-02-28T09:02:07;5.13;;;1.52;;
20997;SDS011;10657;51.276;6.390;2023-02-28T09:04:35;4.63;;;1.50;;
20997;SDS011;10657;51.276;6.390;2023-02-28T09:07:02;2.10;;;0.85;;
20997;SDS011;10657;51.276;6.390;2023-02-28T09:09:28;4.85;;;1.83;;
20997;SDS011;10657;51.276;6.390;2023-02-28T09:11:55;7.18;;;1.38;;
20997;SDS011;10657;51.276;6.390;2023-02-28T09:14:22;3.38;;;1.08;;
20997;SDS011;10657;51.276;6.390;2023-02-28T09:16:49;4.85;;;1.05;;
20997;SDS011;10657;51.276;6.390;2023-02-28T09:19:16;2.88;;;0.70;;
20997;SDS011;10657;51.276;6.390;2023-02-28T09:21:42;5.97;;;1.52;;
20997;SDS011;10657;51.276;6.390;2023-02-28T09:24:09;3.08;;;0.80;;
20997;SDS011;10657;51.276;6.390;2023-02-28T09:26:38;0.55;;;0.20;;
20997;SDS011;10657;51.276;6.390;2023-02-28T09:29:16;5.10;;;1.58;;
20997;SDS011;10657;51.276;6.390;2023-02-28T09:31:43;3.63;;;1.23;;
20997;SDS011;10657;51.276;6.390;2023-02-28T09:34:10;3.08;;;0.95;;
20997;SDS011;10657;51.276;6.390;2023-02-28T09:36:37;2.10;;;0.60;;
20997;SDS011;10657;51.276;6.390;2023-02-28T09:39:11;3.85;;;1.30;;
20997;SDS011;10657;51.276;6.390;2023-02-28T09:41:39;4.03;;;1.30;;
20997;SDS011;10657;51.276;6.390;2023-02-28T09:44:20;5.55;;;1.98;;
20997;SDS011;10657;51.276;6.390;2023-02-28T09:47:05;2.70;;;1.00;;
20997;SDS011;10657;51.276;6.390;2023-02-28T09:49:42;1.35;;;0.40;;
20997;SDS011;10657;51.276;6.390;2023-02-28T09:52:14;2.78;;;1.10;;
20997;SDS011;10657;51.276;6.390;2023-02-28T09:54:45;5.80;;;1.45;;
20997;SDS011;10657;51.276;6.390;2023-02-28T10:02:39;2.33;;;1.00;;
20997;SDS011;10657;51.276;6.390;2023-02-28T10:05:29;3.42;;;1.20;;
20997;SDS011;10657;51.276;6.390;2023-02-28T10:08:02;4.57;;;1.10;;
20997;SDS011;10657;51.276;6.390;2023-02-28T10:11:02;3.55;;;1.10;;
20997;SDS011;10657;51.276;6.390;2023-02-28T10:13:34;2.17;;;1.02;;
20997;SDS011;10657;51.276;6.390;2023-02-28T10:16:09;2.17;;;0.65;;
20997;SDS011;10657;51.276;6.390;2023-02-28T10:18:46;1.63;;;0.55;;
20997;SDS011;10657;51.276;6.390;2023-02-28T10:21:21;4.53;;;1.30;;
20997;SDS011;10657;51.276;6.390;2023-02-28T10:24:26;3.75;;;1.20;;
20997;SDS011;10657;51.276;6.390;2023-02-28T10:27:17;3.55;;;1.05;;
20997;SDS011;10657;51.276;6.390;2023-02-28T10:29:52;1.67;;;0.63;;
20997;SDS011;10657;51.276;6.390;2023-02-28T10:32:26;2.97;;;1.10;;
20997;SDS011;10657;51.276;6.390;2023-02-28T10:35:00;1.77;;;0.80;;
20997;SDS011;10657;51.276;6.390;2023-02-28T10:37:27;2.85;;;0.93;;
20997;SDS011;10657;51.276;6.390;2023-02-28T10:39:54;3.67;;;1.15;;
20997;SDS011;10657;51.276;6.390;2023-02-28T10:45:06;2.75;;;1.00;;
20997;SDS011;10657;51.276;6.390;2023-02-28T10:47:39;1.23;;;0.45;;
20997;SDS011;10657;51.276;6.390;2023-02-28T10:53:16;2.13;;;0.70;;
20997;SDS011;10657;51.276;6.390;2023-02-28T10:55:43;0.63;;;0.30;;
20997;SDS011;10657;51.276;6.390;2023-02-28T10:58:23;9.80;;;1.10;;
20997;SDS011;10657;51.276;6.390;2023-02-28T11:00:50;3.17;;;0.95;;
20997;SDS011;10657;51.276;6.390;2023-02-28T11:03:23;2.40;;;0.90;;
20997;SDS011;10657;51.276;6.390;2023-02-28T11:05:57;2.28;;;0.85;;
20997;SDS011;10657;51.276;6.390;2023-02-28T11:08:25;1.55;;;0.60;;
20997;SDS011;10657;51.276;6.390;2023-02-28T11:10:56;2.22;;;0.50;;
20997;SDS011;10657;51.276;6.390;2023-02-28T11:13:32;2.33;;;0.68;;
20997;SDS011;10657;51.276;6.390;2023-02-28T11:16:02;0.55;;;0.30;;
20997;SDS011;10657;51.276;6.390;2023-02-28T11:21:19;0.38;;;0.28;;
20997;SDS011;10657;51.276;6.390;2023-02-28T11:23:52;0.22;;;0.13;;
20997;SDS011;10657;51.276;6.390;2023-02-28T11:26:37;2.70;;;1.00;;
20997;SDS011;10657;51.276;6.390;2023-02-28T11:29:39;2.03;;;0.75;;
20997;SDS011;10657;51.276;6.390;2023-02-28T11:32:18;1.65;;;0.50;;
20997;SDS011;10657;51.276;6.390;2023-02-28T11:34:58;0.47;;;0.30;;
20997;SDS011;10657;51.276;6.390;2023-02-28T11:37:29;1.70;;;0.63;;
20997;SDS011;10657;51.276;6.390;2023-02-28T11:39:57;1.20;;;0.28;;
20997;SDS011;10657;51.276;6.390;2023-02-28T11:42:28;3.17;;;1.02;;
20997;SDS011;10657;51.276;6.390;2023-02-28T11:48:03;3.65;;;1.00;;
20997;SDS011;10657;51.276;6.390;2023-02-28T11:50:44;1.70;;;0.70;;
20997;SDS011;10657;51.276;6.390;2023-02-28T11:56:41;0.93;;;0.47;;
20997;SDS011;10657;51.276;6.390;2023-02-28T11:59:23;0.52;;;0.30;;
20997;SDS011;10657;51.276;6.390;2023-02-28T12:02:08;1.25;;;0.70;;
20997;SDS011;10657;51.276;6.390;2023-02-28T12:04:49;1.08;;;0.30;;
20997;SDS011;10657;51.276;6.390;2023-02-28T12:07:29;1.70;;;0.50;;
20997;SDS011;10657;51.276;6.390;2023-02-28T12:10:16;2.17;;;0.55;;
20997;SDS011;10657;51.276;6.390;2023-02-28T12:18:40;4.05;;;0.60;;
20997;SDS011;10657;51.276;6.390;2023-02-28T12:21:18;4.03;;;0.68;;
20997;SDS011;10657;51.276;6.390;2023-02-28T12:26:19;1.02;;;0.57;;
20997;SDS011;10657;51.276;6.390;2023-02-28T12:29:23;2.10;;;0.60;;
20997;SDS011;10657;51.276;6.390;2023-02-28T12:31:59;8.93;;;2.95;;
20997;SDS011;10657;51.276;6.390;2023-02-28T12:34:41;3.00;;;0.80;;
20997;SDS011;10657;51.276;6.390;2023-02-28T12:37:17;2.28;;;0.65;;
20997;SDS011;10657;51.276;6.390;2023-02-28T12:40:01;0.80;;;0.43;;
20997;SDS011;10657;51.276;6.390;2023-02-28T12:42:36;0.73;;;0.45;;
20997;SDS011;10657;51.276;6.390;2023-02-28T12:47:38;2.80;;;0.90;;
20997;SDS011;10657;51.276;6.390;2023-02-28T12:50:07;1.52;;;0.52;;
20997;SDS011;10657;51.276;6.390;2023-02-28T12:58:19;2.47;;;0.70;;
20997;SDS011;10657;51.276;6.390;2023-02-28T13:03:46;0.75;;;0.22;;
20997;SDS011;10657;51.276;6.390;2023-02-28T13:09:11;1.38;;;0.35;;
20997;SDS011;10657;51.276;6.390;2023-02-28T13:11:45;2.35;;;0.80;;
20997;SDS011;10657;51.276;6.390;2023-02-28T13:17:02;2.97;;;1.10;;
20997;SDS011;10657;51.276;6.390;2023-02-28T13:19:31;0.90;;;0.30;;
20997;SDS011;10657;51.276;6.390;2023-02-28T13:21:59;2.38;;;0.77;;
20997;SDS011;10657;51.276;6.390;2023-02-28T13:29:31;3.55;;;1.10;;
20997;SDS011;10657;51.276;6.390;2023-02-28T13:34:41;1.58;;;0.47;;
20997;SDS011;10657;51.276;6.390;2023-02-28T13:37:34;4.75;;;1.23;;
20997;SDS011;10657;51.276;6.390;2023-02-28T13:42:46;0.98;;;0.40;;
20997;SDS011;10657;51.276;6.390;2023-02-28T13:45:25;5.72;;;1.10;;
20997;SDS011;10657;51.276;6.390;2023-02-28T13:55:46;2.97;;;0.90;;
20997;SDS011;10657;51.276;6.390;2023-02-28T14:01:23;0.65;;;0.25;;
20997;SDS011;10657;51.276;6.390;2023-02-28T14:06:54;1.45;;;0.43;;
20997;SDS011;10657;51.276;6.390;2023-02-28T14:09:27;5.68;;;1.75;;
20997;SDS011;10657;51.276;6.390;2023-02-28T14:15:23;4.65;;;1.60;;
20997;SDS011;10657;51.276;6.390;2023-02-28T14:18:16;3.00;;;0.80;;
20997;SDS011;10657;51.276;6.390;2023-02-28T14:20:43;2.25;;;0.90;;
20997;SDS011;10657;51.276;6.390;2023-02-28T14:23:23;1.80;;;0.50;;
20997;SDS011;10657;51.276;6.390;2023-02-28T14:26:12;1.17;;;0.43;;
20997;SDS011;10657;51.276;6.390;2023-02-28T14:31:45;2.95;;;0.90;;
20997;SDS011;10657;51.276;6.390;2023-02-28T14:34:39;5.65;;;1.70;;
20997;SDS011;10657;51.276;6.390;2023-02-28T14:37:14;2.67;;;0.90;;
20997;SDS011;10657;51.276;6.390;2023-02-28T14:39:52;2.47;;;0.77;;
20997;SDS011;10657;51.276;6.390;2023-02-28T14:42:33;4.30;;;0.80;;
20997;SDS011;10657;51.276;6.390;2023-02-28T14:45:19;2.33;;;0.80;;
20997;SDS011;10657;51.276;6.390;2023-02-28T14:47:47;3.35;;;1.17;;
20997;SDS011;10657;51.276;6.390;2023-02-28T14:50:20;0.98;;;0.47;;
20997;SDS011;10657;51.276;6.390;2023-02-28T14:52:53;0.10;;;0.10;;
20997;SDS011;10657;51.276;6.390;2023-02-28T14:55:31;2.22;;;0.70;;
20997;SDS011;10657;51.276;6.390;2023-02-28T14:58:01;2.38;;;0.90;;
20997;SDS011;10657;51.276;6.390;2023-02-28T15:00:33;3.10;;;0.90;;
20997;SDS011;10657;51.276;6.390;2023-02-28T15:03:23;2.45;;;0.85;;
20997;SDS011;10657;51.276;6.390;2023-02-28T15:05:56;2.03;;;0.77;;
20997;SDS011;10657;51.276;6.390;2023-02-28T15:08:25;1.45;;;0.52;;
20997;SDS011;10657;51.276;6.390;2023-02-28T15:10:56;2.63;;;0.77;;
20997;SDS011;10657;51.276;6.390;2023-02-28T15:13:36;0.60;;;0.30;;
20997;SDS011;10657;51.276;6.390;2023-02-28T15:16:14;5.90;;;0.80;;
20997;SDS011;10657;51.276;6.390;2023-02-28T15:18:56;3.47;;;1.00;;
20997;SDS011;10657;51.276;6.390;2023-02-28T15:21:27;4.10;;;0.80;;
20997;SDS011;10657;51.276;6.390;2023-02-28T15:24:00;5.95;;;0.73;;
20997;SDS011;10657;51.276;6.390;2023-02-28T15:26:56;2.25;;;0.90;;
20997;SDS011;10657;51.276;6.390;2023-02-28T15:29:27;3.63;;;1.00;;
20997;SDS011;10657;51.276;6.390;2023-02-28T15:32:05;3.33;;;0.95;;
20997;SDS011;10657;51.276;6.390;2023-02-28T15:34:34;10.73;;;2.47;;
20997;SDS011;10657;51.276;6.390;2023-02-28T15:37:32;5.68;;;0.85;;
20997;SDS011;10657;51.276;6.390;2023-02-28T15:40:12;2.10;;;0.73;;
20997;SDS011;10657;51.276;6.390;2023-02-28T15:42:58;1.02;;;0.45;;
20997;SDS011;10657;51.276;6.390;2023-02-28T15:48:05;5.63;;;1.20;;
20997;SDS011;10657;51.276;6.390;2023-02-28T15:50:39;7.60;;;1.40;;
20997;SDS011;10657;51.276;6.390;2023-02-28T15:53:12;1.05;;;0.40;;
20997;SDS011;10657;51.276;6.390;2023-02-28T15:55:41;2.95;;;0.93;;
20997;SDS011;10657;51.276;6.390;2023-02-28T15:58:08;3.63;;;0.90;;
20997;SDS011;10657;51.276;6.390;2023-02-28T16:00:39;2.75;;;1.08;;
20997;SDS011;10657;51.276;6.390;2023-02-28T16:03:25;3.50;;;0.90;;
20997;SDS011;10657;51.276;6.390;2023-02-28T16:07:05;3.75;;;1.10;;
20997;SDS011;10657;51.276;6.390;2023-02-28T16:09:00;0.82;;;0.30;;
20997;SDS011;10657;51.276;6.390;2023-02-28T16:11:28;2.72;;;1.00;;
20997;SDS011;10657;51.276;6.390;2023-02-28T16:13:55;3.30;;;0.77;;
20997;SDS011;10657;51.276;6.390;2023-02-28T16:16:24;3.15;;;0.98;;
20997;SDS011;10657;51.276;6.390;2023-02-28T16:18:52;4.28;;;0.88;;
20997;SDS011;10657;51.276;6.390;2023-02-28T16:21:19;3.35;;;1.02;;
20997;SDS011;10657;51.276;6.390;2023-02-28T16:23:46;1.77;;;0.70;;
20997;SDS011;10657;51.276;6.390;2023-02-28T16:26:19;4.65;;;1.02;;
20997;SDS011;10657;51.276;6.390;2023-02-28T16:28:50;2.67;;;0.82;;
20997;SDS011;10657;51.276;6.390;2023-02-28T16:31:17;3.00;;;1.00;;
20997;SDS011;10657;51.276;6.390;2023-02-28T16:33:44;9.38;;;2.67;;
20997;SDS011;10657;51.276;6.390;2023-02-28T16:36:15;2.40;;;0.80;;
20997;SDS011;10657;51.276;6.390;2023-02-28T16:38:46;3.85;;;1.15;;
20997;SDS011;10657;51.276;6.390;2023-02-28T16:41:20;2.55;;;0.85;;
20997;SDS011;10657;51.276;6.390;2023-02-28T16:43:49;5.93;;;1.10;;
20997;SDS011;10657;51.276;6.390;2023-02-28T16:46:17;3.88;;;1.20;;
20997;SDS011;10657;51.276;6.390;2023-02-28T16:48:46;4.78;;;1.10;;
20997;SDS011;10657;51.276;6.390;2023-02-28T16:51:17;2.83;;;0.90;;
20997;SDS011;10657;51.276;6.390;2023-02-28T16:53:44;2.45;;;0.80;;
20997;SDS011;10657;51.276;6.390;2023-02-28T16:56:22;3.10;;;0.88;;
20997;SDS011;10657;51.276;6.390;2023-02-28T16:58:50;3.00;;;1.10;;
20997;SDS011;10657;51.276;6.390;2023-02-28T17:01:18;1.88;;;0.80;;
20997;SDS011;10657;51.276;6.390;2023-02-28T17:03:48;5.93;;;1.83;;